createdAt,value
2022-09-20T00:01:43.587Z,31.2
2022-09-20T00:04:00.558Z,31.3
2022-09-20T00:06:17.342Z,31.3
2022-09-20T00:08:33.433Z,32.8
2022-09-20T00:10:49.742Z,33.8
2022-09-20T00:13:06.399Z,33.7
2022-09-20T00:15:22.673Z,33.3
2022-09-20T00:17:39.589Z,30.4
2022-09-20T00:19:56.933Z,31.4
2022-09-20T00:22:14.010Z,30.7
2022-09-20T00:24:31.280Z,31.3
2022-09-20T00:26:48.288Z,30.9
2022-09-20T00:29:05.480Z,30.9
2022-09-20T00:31:22.046Z,30.8
2022-09-20T00:33:38.297Z,33
2022-09-20T00:35:55.403Z,31.6
2022-09-20T00:38:12.455Z,30.4
2022-09-20T00:40:29.854Z,30.7
2022-09-20T00:42:46.684Z,31.2
2022-09-20T00:45:03.833Z,31.1
2022-09-20T00:47:20.812Z,30.8
2022-09-20T00:49:38.099Z,31.2
2022-09-20T00:51:54.617Z,30.9
2022-09-20T00:54:11.086Z,32.3
2022-09-20T00:56:27.880Z,31.1
2022-09-20T00:58:45.375Z,31.3
2022-09-20T01:01:01.945Z,31.7
2022-09-20T01:03:17.987Z,32.8
2022-09-20T01:05:35.041Z,31.2
2022-09-20T01:07:52.300Z,31.1
2022-09-20T01:10:09.481Z,30.6
2022-09-20T01:12:26.312Z,30.6
2022-09-20T01:14:43.619Z,31.1
2022-09-20T01:17:00.635Z,31
2022-09-20T01:19:17.862Z,31.4
2022-09-20T01:21:34.181Z,31.1
2022-09-20T01:23:51.754Z,31.6
2022-09-20T01:26:08.994Z,30.8
2022-09-20T01:28:25.914Z,30.9
2022-09-20T01:30:43.072Z,31.1
2022-09-20T01:32:59.664Z,30.9
2022-09-20T01:35:15.817Z,32.3
2022-09-20T01:37:32.311Z,31.4
2022-09-20T01:39:50.181Z,30.8
2022-09-20T01:42:07.090Z,30.6
2022-09-20T01:44:24.725Z,30.4
2022-09-20T01:46:41.380Z,31.4
2022-09-20T01:48:58.278Z,30.6
2022-09-20T01:51:15.602Z,30.9
2022-09-20T01:53:31.923Z,30.8
2022-09-20T01:55:49.898Z,31.6
2022-09-20T01:58:06.808Z,31.1
2022-09-20T02:00:31.380Z,30.8
2022-09-20T02:02:48.419Z,31
2022-09-20T02:05:05.361Z,31
2022-09-20T02:07:21.819Z,30.8
2022-09-20T02:09:38.020Z,31.9
2022-09-20T02:11:54.749Z,31.3
2022-09-20T02:14:11.743Z,30.6
2022-09-20T02:16:28.924Z,30.8
2022-09-20T02:18:45.880Z,30.5
2022-09-20T02:21:02.842Z,31
2022-09-20T02:23:19.816Z,31
2022-09-20T02:25:36.335Z,30.9
2022-09-20T02:27:52.519Z,31.8
2022-09-20T02:30:09.211Z,31.4
2022-09-20T02:32:25.270Z,32.1
2022-09-20T02:34:42.297Z,31.3
2022-09-20T02:36:59.381Z,30.4
2022-09-20T02:39:16.443Z,30.8
2022-09-20T02:41:32.881Z,30.6
2022-09-20T02:43:48.727Z,32.4
2022-09-20T02:46:05.187Z,33.6
2022-09-20T02:48:22.047Z,31.3
2022-09-20T02:50:39.063Z,31.5
2022-09-20T02:52:56.106Z,30.6
2022-09-20T02:55:13.280Z,31.1
2022-09-20T02:57:30.146Z,31.1
2022-09-20T02:59:47.178Z,31.5
2022-09-20T03:03:26.566Z,31.5
2022-09-20T03:05:43.718Z,31.8
2022-09-20T03:08:02.940Z,31.4
2022-09-20T03:10:16.998Z,31.6
2022-09-20T03:12:33.042Z,32
2022-09-20T03:14:50.268Z,31.3
2022-09-20T03:17:07.186Z,31.7
2022-09-20T03:19:24.086Z,31.7
2022-09-20T03:21:40.541Z,31.4
2022-09-20T03:23:56.646Z,32.2
2022-09-20T03:26:13.169Z,31.3
2022-09-20T03:28:29.017Z,32.3
2022-09-20T03:30:45.351Z,32.9
2022-09-20T03:33:02.573Z,31.8
2022-09-20T03:35:19.529Z,31.3
2022-09-20T03:37:36.146Z,31.9
2022-09-20T03:39:51.762Z,32.5
2022-09-20T03:42:07.907Z,32.5
2022-09-20T03:44:24.304Z,33.6
2022-09-20T03:46:41.423Z,32.3
2022-09-20T03:48:58.566Z,31.1
2022-09-20T03:51:15.560Z,31.9
2022-09-20T03:53:31.172Z,30.9
2022-09-20T03:55:47.785Z,31.1
2022-09-20T03:58:06.840Z,31.6
2022-09-20T04:00:20.022Z,33.2
2022-09-20T04:02:36.803Z,32
2022-09-20T04:04:52.786Z,32.6
2022-09-20T04:07:09.060Z,34.1
2022-09-20T04:09:26.180Z,31.4
2022-09-20T04:11:43.307Z,30.8
2022-09-20T04:14:00.442Z,31.9
2022-09-20T04:16:16.975Z,31.7
2022-09-20T04:18:32.625Z,32.3
2022-09-20T04:20:48.988Z,32.4
2022-09-20T04:23:06.012Z,31.8
2022-09-20T04:25:22.737Z,31.5
2022-09-20T04:27:38.869Z,32.9
2022-09-20T04:29:56.066Z,31.6
2022-09-20T04:32:13.149Z,31.6
2022-09-20T04:34:30.130Z,31.9
2022-09-20T04:36:47.182Z,31.6
2022-09-20T04:39:04.198Z,32.2
2022-09-20T04:41:20.622Z,31.6
2022-09-20T04:43:36.682Z,32.4
2022-09-20T04:45:53.911Z,31.5
2022-09-20T04:48:10.890Z,31.7
2022-09-20T04:50:28.003Z,32
2022-09-20T04:52:45.024Z,31.6
2022-09-20T04:55:02.013Z,32
2022-09-20T04:57:18.961Z,32.1
2022-09-20T04:59:36.036Z,32.1
2022-09-20T05:01:53.090Z,31.9
2022-09-20T05:04:10.038Z,32.2
2022-09-20T05:06:26.947Z,32
2022-09-20T05:08:44.309Z,32.2
2022-09-20T05:11:00.380Z,32.8
2022-09-20T05:13:17.428Z,31.5
2022-09-20T05:15:34.370Z,31.9
2022-09-20T05:17:51.355Z,32.1
2022-09-20T05:22:25.033Z,32.1
2022-09-20T05:24:40.809Z,32.3
2022-09-20T05:26:57.364Z,31.9
2022-09-20T05:29:13.703Z,32.9
2022-09-20T05:31:30.897Z,31.9
2022-09-20T05:33:48.020Z,32.4
2022-09-20T05:36:04.485Z,32.6
2022-09-20T05:38:20.884Z,33.3
2022-09-20T05:40:37.805Z,32.8
2022-09-20T05:42:54.487Z,33.6
2022-09-20T05:45:10.428Z,33.9
2022-09-20T05:47:27.973Z,33.4
2022-09-20T05:49:44.231Z,33.4
2022-09-20T05:52:00.113Z,33.9
2022-09-20T05:54:17.426Z,33.3
2022-09-20T05:56:34.440Z,34
2022-09-20T05:58:51.543Z,33.6
2022-09-20T06:01:07.781Z,33.7
2022-09-20T06:03:22.784Z,33.6
2022-09-20T06:05:39.297Z,33.3
2022-09-20T06:07:56.848Z,33.1
2022-09-20T06:10:12.942Z,33.1
2022-09-20T06:12:28.697Z,33.2
2022-09-20T06:14:45.406Z,33.6
2022-09-20T06:17:01.246Z,33.1
2022-09-20T06:19:18.565Z,33
2022-09-20T06:21:35.369Z,33.3
2022-09-20T06:23:52.501Z,33.6
2022-09-20T06:26:09.209Z,33.1
2022-09-20T06:28:26.288Z,32.9
2022-09-20T06:30:42.931Z,33.3
2022-09-20T06:32:59.775Z,33.4
2022-09-20T06:35:16.382Z,34
2022-09-20T06:37:32.897Z,32.9
2022-09-20T06:39:49.761Z,34.1
2022-09-20T06:42:06.325Z,33.7
2022-09-20T06:46:38.947Z,33.6
2022-09-20T06:48:54.060Z,32.6
2022-09-20T06:51:11.407Z,33.3
2022-09-20T06:53:28.066Z,33.1
2022-09-20T06:55:44.583Z,33.4
2022-09-20T06:58:00.851Z,33.3
2022-09-20T07:00:17.467Z,33.1
2022-09-20T07:04:50.308Z,33.3
2022-09-20T07:07:09.205Z,33.2
2022-09-20T07:09:21.006Z,32.5
2022-09-20T07:11:36.437Z,33.2
2022-09-20T07:13:52.958Z,33.4
2022-09-20T07:16:08.113Z,32.8
2022-09-20T07:18:24.380Z,33.8
2022-09-20T07:20:39.181Z,32.8
2022-09-20T07:22:54.699Z,33.4
2022-09-20T07:25:11.603Z,33.4
2022-09-20T07:27:29.413Z,33.7
2022-09-20T07:29:42.428Z,32.8
2022-09-20T07:31:58.076Z,32.8
2022-09-20T07:34:14.774Z,33.8
2022-09-20T07:36:30.545Z,33.8
2022-09-20T07:38:46.285Z,32.3
2022-09-20T07:41:02.289Z,33.1
2022-09-20T07:43:17.483Z,32.9
2022-09-20T07:45:33.706Z,33.3
2022-09-20T07:47:48.324Z,32.6
2022-09-20T07:50:03.405Z,32.9
2022-09-20T07:52:19.041Z,32.9
2022-09-20T07:54:35.068Z,33.1
2022-09-20T07:56:50.433Z,33.1
2022-09-20T07:59:07.313Z,32.1
2022-09-20T08:01:23.274Z,31.9
2022-09-20T08:03:39.366Z,31.6
2022-09-20T08:05:55.330Z,31.4
2022-09-20T08:08:11.030Z,31.2
2022-09-20T08:10:26.340Z,32.6
2022-09-20T08:15:54.528Z,31.5
2022-09-20T08:18:10.169Z,31.4
2022-09-20T08:20:25.628Z,31.3
2022-09-20T08:22:40.485Z,32.8
2022-09-20T08:25:09.889Z,32.8
2022-09-20T08:27:24.702Z,33.1
2022-09-20T08:29:39.797Z,33.1
2022-09-20T08:31:54.474Z,33.3
2022-09-20T08:34:09.789Z,33.4
2022-09-20T08:36:26.267Z,32.3
2022-09-20T08:40:28.676Z,31.6
2022-09-20T08:42:45.124Z,32.4
2022-09-20T08:45:01.692Z,31.8
2022-09-20T08:47:22.700Z,31.9
2022-09-20T08:49:38.040Z,31.6
2022-09-20T08:51:53.448Z,32.3
2022-09-20T08:54:08.318Z,33.7
2022-09-20T08:56:23.947Z,33.6
2022-09-20T08:58:40.454Z,32.9
2022-09-20T09:03:25.192Z,32.7
2022-09-20T09:05:40.696Z,33.1
2022-09-20T09:07:57.262Z,32.6
2022-09-20T09:10:13.641Z,31.7
2022-09-20T09:12:29.541Z,31.9
2022-09-20T09:14:45.038Z,33
2022-09-20T09:17:01.457Z,32.1
2022-09-20T09:19:17.063Z,32.1
2022-09-20T09:21:32.626Z,32.9
2022-09-20T09:23:48.982Z,32.7
2022-09-20T09:26:05.390Z,31.8
2022-09-20T09:28:21.020Z,32
2022-09-20T09:30:36.817Z,32.6
2022-09-20T09:32:52.802Z,32.7
2022-09-20T09:35:08.668Z,31.8
2022-09-20T09:37:28.395Z,32.1
2022-09-20T09:39:39.688Z,32.9
2022-09-20T09:41:54.755Z,34.6
2022-09-20T09:44:10.267Z,33.3
2022-09-20T09:46:25.587Z,34
2022-09-20T09:48:41.168Z,34
2022-09-20T09:50:56.765Z,33.6
2022-09-20T09:53:12.605Z,34.4
2022-09-20T09:55:27.971Z,34.1
2022-09-20T09:57:43.711Z,34.8
2022-09-20T09:59:59.870Z,34.1
2022-09-20T10:02:15.091Z,34.4
2022-09-20T10:04:30.726Z,33.9
2022-09-20T10:06:49.382Z,34.6
2022-09-20T10:09:02.239Z,34.4
2022-09-20T10:11:18.025Z,34.6
2022-09-20T10:13:37.093Z,34.4
2022-09-20T10:15:49.545Z,33.7
2022-09-20T10:18:05.061Z,33.9
2022-09-20T10:20:20.826Z,34.8
2022-09-20T10:22:36.601Z,34.2
2022-09-20T10:25:31.986Z,34.9
2022-09-20T10:27:47.669Z,34.4
2022-09-20T10:30:03.506Z,33.8
2022-09-20T10:32:19.208Z,33.8
2022-09-20T10:34:35.042Z,34.5
2022-09-20T10:36:50.860Z,34.3
2022-09-20T10:39:06.870Z,34.4
2022-09-20T10:41:23.605Z,32.6
2022-09-20T10:43:39.204Z,32.1
2022-09-20T10:46:32.158Z,32.7
2022-09-20T10:48:44.289Z,33.3
2022-09-20T10:51:00.297Z,34.3
2022-09-20T10:53:16.988Z,32.4
2022-09-20T10:55:33.644Z,31.9
2022-09-20T10:57:49.333Z,31.3
2022-09-20T11:00:04.660Z,32.4
2022-09-20T11:02:20.084Z,33.1
2022-09-20T11:04:35.812Z,33.5
2022-09-20T11:06:52.630Z,32.9
2022-09-20T11:09:13.246Z,31.7
2022-09-20T11:11:25.515Z,31.2
2022-09-20T11:13:42.232Z,31.3
2022-09-20T11:15:58.547Z,31.5
2022-09-20T11:18:14.480Z,31.4
2022-09-20T11:20:29.522Z,32.9
2022-09-20T11:22:45.385Z,33.1
2022-09-20T11:25:01.407Z,32.2
2022-09-20T11:27:16.844Z,33.3
2022-09-20T11:29:32.337Z,32.2
2022-09-20T11:31:48.330Z,33.6
2022-09-20T11:34:03.772Z,33.6
2022-09-20T11:36:19.533Z,33.6
2022-09-20T11:38:35.388Z,33.4
2022-09-20T11:40:51.126Z,34.3
2022-09-20T11:43:07.112Z,34.2
2022-09-20T11:45:26.333Z,34
2022-09-20T11:47:55.806Z,33.4
2022-09-20T11:50:11.461Z,34.8
2022-09-20T11:52:27.316Z,34
2022-09-20T11:54:43.112Z,33.9
2022-09-20T11:56:59.153Z,33.3
2022-09-20T11:59:14.700Z,32.6
2022-09-20T12:01:30.495Z,34.4
2022-09-20T12:03:46.198Z,33.9
2022-09-20T12:06:19.041Z,34.4
2022-09-20T12:08:34.848Z,34.3
2022-09-20T12:10:50.655Z,34.1
2022-09-20T12:13:06.470Z,34.4
2022-09-20T12:15:22.237Z,33.9
2022-09-20T12:17:38.090Z,34.1
2022-09-20T12:19:53.741Z,34.1
2022-09-20T12:22:09.764Z,34.1
2022-09-20T12:24:25.522Z,32.3
2022-09-20T12:26:41.865Z,32.4
2022-09-20T12:28:57.540Z,32.7
2022-09-20T12:31:14.024Z,32.3
2022-09-20T12:33:30.424Z,31.9
2022-09-20T12:35:46.292Z,31.1
2022-09-20T12:38:01.330Z,32.6
2022-09-20T12:40:16.804Z,33.3
2022-09-20T12:42:32.164Z,33.3
2022-09-20T12:44:47.830Z,33.2
2022-09-20T12:47:03.523Z,33.9
2022-09-20T12:49:19.448Z,33.9
2022-09-20T12:51:35.196Z,34
2022-09-20T12:53:51.160Z,34
2022-09-20T12:56:06.920Z,34.1
2022-09-20T12:58:23.036Z,34.4
2022-09-20T13:00:38.703Z,33.4
2022-09-20T13:02:54.666Z,33.9
2022-09-20T13:05:10.454Z,34.5
2022-09-20T13:07:26.714Z,33.9
2022-09-20T13:09:42.322Z,32.9
2022-09-20T13:11:58.155Z,34.2
2022-09-20T13:16:30.012Z,34.3
2022-09-20T13:18:46.123Z,33.5
2022-09-20T13:21:01.833Z,33.5
2022-09-20T13:23:17.755Z,33.8
2022-09-20T13:25:33.609Z,33.6
2022-09-20T13:27:49.644Z,34.1
2022-09-20T13:30:05.459Z,34.2
2022-09-20T13:32:21.151Z,34.3
2022-09-20T13:36:56.127Z,34.9
2022-09-20T13:39:09.127Z,33.4
2022-09-20T13:41:25.084Z,33.9
2022-09-20T13:43:56.934Z,33.9
2022-09-20T13:46:13.094Z,34.1
2022-09-20T13:48:29.216Z,32.8
2022-09-20T13:50:47.231Z,32.4
2022-09-20T13:53:01.085Z,32.1
2022-09-20T13:55:20.827Z,32.7
2022-09-20T13:57:36.368Z,32.3
2022-09-20T13:59:51.985Z,33.4
2022-09-20T14:02:07.636Z,32.9
2022-09-20T14:04:23.348Z,33.6
2022-09-20T14:06:39.141Z,33.3
2022-09-20T14:08:55.280Z,34.1
2022-09-20T14:11:11.312Z,32.1
2022-09-20T14:13:26.593Z,32.5
2022-09-20T14:15:42.232Z,33.4
2022-09-20T14:17:58.042Z,33.4
2022-09-20T14:20:13.495Z,32.9
2022-09-20T14:22:29.284Z,33.4
2022-09-20T14:24:45.039Z,33.8
2022-09-20T14:27:01.078Z,33.1
2022-09-20T14:29:17.107Z,31.9
2022-09-20T14:31:32.603Z,32.3
2022-09-20T14:33:50.704Z,32.4
2022-09-20T14:36:03.808Z,32.7
2022-09-20T14:38:19.568Z,32.8
2022-09-20T14:40:35.554Z,32.7
2022-09-20T14:42:51.524Z,31.8
2022-09-20T14:45:06.984Z,32.6
2022-09-20T14:47:22.936Z,33.3
2022-09-20T14:49:38.923Z,31.8
2022-09-20T14:51:54.720Z,32.1
2022-09-20T14:54:10.706Z,31.8
2022-09-20T14:56:25.940Z,32.7
2022-09-20T14:58:41.763Z,32.5
2022-09-20T15:03:24.891Z,32.9
2022-09-20T15:05:40.967Z,30.7
2022-09-20T15:07:57.435Z,31.3
2022-09-20T15:10:13.930Z,31.2
2022-09-20T15:12:29.717Z,31
2022-09-20T15:14:45.198Z,32.2
2022-09-20T15:17:00.994Z,31.9
2022-09-20T15:19:16.563Z,32.4
2022-09-20T15:21:32.983Z,31.6
2022-09-20T15:23:49.382Z,31.1
2022-09-20T15:26:05.095Z,31.5
2022-09-20T15:28:19.896Z,31.9
2022-09-20T15:30:36.878Z,31.3
2022-09-20T15:32:53.280Z,30.8
2022-09-20T15:35:09.716Z,30.6
2022-09-20T15:37:26.042Z,30.8
2022-09-20T15:39:42.422Z,30.8
2022-09-20T15:44:15.053Z,31.3
2022-09-20T15:46:31.370Z,30.4
2022-09-20T15:48:48.184Z,30.8
2022-09-20T15:51:04.119Z,30.9
2022-09-20T15:53:20.428Z,30.5
2022-09-20T15:55:36.837Z,30.5
2022-09-20T15:57:53.215Z,30.3
2022-09-20T16:00:09.598Z,30.4
2022-09-20T16:02:25.939Z,30.6
2022-09-20T16:04:41.799Z,30.4
2022-09-20T16:06:56.648Z,31.8
2022-09-20T16:09:12.376Z,31.4
2022-09-20T16:11:29.146Z,31.7
2022-09-20T16:13:45.346Z,31.9
2022-09-20T16:16:00.437Z,31.8
2022-09-20T16:18:15.658Z,32.7
2022-09-20T16:20:31.043Z,31.7
2022-09-20T16:22:46.739Z,33.4
2022-09-20T16:25:02.156Z,32.7
2022-09-20T16:29:34.281Z,33.8
2022-09-20T16:31:49.473Z,32.8
2022-09-20T16:34:06.036Z,32.5
2022-09-20T16:36:24.306Z,32.4
2022-09-20T16:38:36.642Z,32.1
2022-09-20T16:40:52.721Z,32.9
2022-09-20T16:43:09.559Z,32.9
2022-09-20T16:45:26.349Z,32.5
2022-09-20T16:47:42.475Z,32.4
2022-09-20T16:49:57.579Z,31.6
2022-09-20T16:52:13.350Z,32.3
2022-09-20T16:54:32.019Z,32.6
2022-09-20T16:56:44.921Z,32.3
2022-09-20T16:59:00.449Z,30.6
2022-09-20T17:01:16.416Z,32.2
2022-09-20T17:03:33.373Z,32.2
2022-09-20T17:05:50.113Z,31.9
2022-09-20T17:08:06.899Z,32.1
2022-09-20T17:10:23.003Z,32.1
2022-09-20T17:12:38.119Z,31.9
2022-09-20T17:14:53.854Z,32.6
2022-09-20T17:17:11.004Z,31.8
2022-09-20T17:19:28.094Z,32.5
2022-09-20T17:21:44.952Z,32.1
2022-09-20T17:24:01.525Z,32.1
2022-09-20T17:26:18.028Z,31.9
2022-09-20T17:28:34.599Z,32.3
2022-09-20T17:30:49.043Z,31.6
2022-09-20T17:33:05.674Z,33.7
2022-09-20T17:35:21.818Z,31.4
2022-09-20T17:37:37.881Z,32.6
2022-09-20T17:39:54.540Z,31.6
2022-09-20T17:42:11.553Z,31.9
2022-09-20T17:44:28.358Z,31.5
2022-09-20T17:46:44.685Z,31.8
2022-09-20T17:49:01.735Z,31.2
2022-09-20T17:51:18.446Z,32
2022-09-20T17:53:35.380Z,32.1
2022-09-20T17:55:52.100Z,31.6
2022-09-20T17:58:08.841Z,31.4
2022-09-20T18:00:25.683Z,31.6
2022-09-20T18:02:42.337Z,31.3
2022-09-20T18:04:59.357Z,31.2
2022-09-20T18:07:16.030Z,32.1
2022-09-20T18:09:32.755Z,31.9
2022-09-20T18:11:49.454Z,31.8
2022-09-20T18:14:06.352Z,31.2
2022-09-20T18:16:22.994Z,32.2
2022-09-20T18:18:39.307Z,31.6
2022-09-20T18:20:56.579Z,32.3
2022-09-20T18:23:13.548Z,31.8
2022-09-20T18:25:30.392Z,32.1
2022-09-20T18:27:47.299Z,31.8
2022-09-20T18:30:03.928Z,31.8
2022-09-20T18:32:21.941Z,31.9
2022-09-20T18:34:38.664Z,31.9
2022-09-20T18:36:55.429Z,32
2022-09-20T18:39:12.188Z,32.2
2022-09-20T18:41:28.859Z,31.9
2022-09-20T18:43:45.507Z,31.4
2022-09-20T18:46:02.191Z,31.5
2022-09-20T18:48:19.009Z,32.4
2022-09-20T18:50:35.924Z,32.2
2022-09-20T18:52:52.426Z,32.2
2022-09-20T18:55:09.155Z,32.1
2022-09-20T18:57:25.857Z,31.6
2022-09-20T18:59:53.570Z,32.1
2022-09-20T19:04:15.929Z,32
2022-09-20T19:06:32.006Z,32.3
2022-09-20T19:08:49.459Z,31.8
2022-09-20T19:11:06.071Z,32
2022-09-20T19:13:23.100Z,31.7
2022-09-20T19:15:39.881Z,32.1
2022-09-20T19:17:56.775Z,32.2
2022-09-20T19:20:13.450Z,31.2
2022-09-20T19:22:30.277Z,31.9
2022-09-20T19:24:47.094Z,32.1
2022-09-20T19:27:03.939Z,31.8
2022-09-20T19:29:20.880Z,31.9
2022-09-20T19:31:37.610Z,31.8
2022-09-20T19:33:53.973Z,31.9
2022-09-20T19:36:09.685Z,31.9
2022-09-20T19:38:26.489Z,31.8
2022-09-20T19:40:43.334Z,31.8
2022-09-20T19:43:00.185Z,31.6
2022-09-20T19:45:17.029Z,31.7
2022-09-20T19:47:33.753Z,32.3
2022-09-20T19:49:50.708Z,32
2022-09-20T19:52:07.465Z,31.9
2022-09-20T19:54:24.434Z,32.1
2022-09-20T19:56:41.026Z,32
2022-09-20T19:58:58.127Z,32.1
2022-09-20T20:01:14.658Z,32.2
2022-09-20T20:03:31.737Z,31.9
2022-09-20T20:05:48.559Z,31.6
2022-09-20T20:08:05.109Z,31.6
2022-09-20T20:10:21.486Z,31.6
2022-09-20T20:12:37.035Z,31.7
2022-09-20T20:14:54.110Z,31.9
2022-09-20T20:17:10.947Z,31.6
2022-09-20T20:19:27.964Z,31.6
2022-09-20T20:21:44.942Z,31.6
2022-09-20T20:24:01.321Z,32.4
2022-09-20T20:26:16.507Z,31.2
2022-09-20T20:28:33.363Z,32.2
2022-09-20T20:30:50.547Z,31.4
2022-09-20T20:33:07.184Z,31.9
2022-09-20T20:35:24.239Z,32
2022-09-20T20:37:40.987Z,31.5
2022-09-20T20:39:57.862Z,31.7
2022-09-20T20:42:13.961Z,31.3
2022-09-20T20:44:29.973Z,31.8
2022-09-20T20:46:46.678Z,32.3
2022-09-20T20:51:21.102Z,31.9
2022-09-20T20:53:36.875Z,31.4
2022-09-20T20:55:53.669Z,32.1
2022-09-20T20:58:10.392Z,31.8
2022-09-20T21:03:26.777Z,32.2
2022-09-20T21:05:43.506Z,31.6
2022-09-20T21:08:00.304Z,31.4
2022-09-20T21:10:16.989Z,31.9
2022-09-20T21:12:33.790Z,31.9
2022-09-20T21:14:50.437Z,31.8
2022-09-20T21:17:07.254Z,31.8
2022-09-20T21:19:24.123Z,31.7
2022-09-20T21:21:40.775Z,31.9
2022-09-20T21:23:57.509Z,31.8
2022-09-20T21:26:14.273Z,31.5
2022-09-20T21:28:31.073Z,31.8
2022-09-20T21:30:47.804Z,31.9
2022-09-20T21:33:04.592Z,32.1
2022-09-20T21:35:20.719Z,31.6
2022-09-20T21:37:35.920Z,31.8
2022-09-20T21:39:51.505Z,31.6
2022-09-20T21:42:08.318Z,31.5
2022-09-20T21:44:25.230Z,32
2022-09-20T21:46:41.514Z,31.5
2022-09-20T21:48:57.073Z,31.8
2022-09-20T21:51:14.019Z,31.8
2022-09-20T21:53:30.826Z,31.6
2022-09-20T21:55:47.030Z,31.6
2022-09-20T21:58:03.186Z,32.4
2022-09-20T22:00:19.540Z,31.4
2022-09-20T22:02:36.441Z,31.5
2022-09-20T22:04:53.294Z,31.4
2022-09-20T22:07:09.976Z,31.5
2022-09-20T22:09:26.915Z,31.8
2022-09-20T22:11:43.596Z,31.6
2022-09-20T22:13:59.761Z,31.6
2022-09-20T22:16:15.334Z,31.6
2022-09-20T22:18:32.145Z,31.8
2022-09-20T22:20:48.242Z,31.4
2022-09-20T22:23:03.649Z,32.2
2022-09-20T22:25:19.352Z,31.6
2022-09-20T22:27:35.581Z,31.1
2022-09-20T22:29:51.475Z,31.9
2022-09-20T22:32:08.403Z,31.1
2022-09-20T22:34:24.649Z,31.7
2022-09-20T22:36:40.346Z,31.8
2022-09-20T22:38:57.280Z,31.3
2022-09-20T22:41:14.086Z,31.5
2022-09-20T22:43:30.955Z,31.2
2022-09-20T22:45:47.783Z,31.1
2022-09-20T22:48:04.457Z,31.1
2022-09-20T22:50:21.235Z,31
2022-09-20T22:52:38.299Z,31.6
2022-09-20T22:54:55.072Z,30.9
2022-09-20T22:57:12.037Z,31.4
2022-09-20T22:59:28.753Z,31.2
2022-09-20T23:01:45.854Z,31.7
2022-09-20T23:04:02.596Z,31
2022-09-20T23:06:18.673Z,31.5
2022-09-20T23:08:34.772Z,31.3
2022-09-20T23:10:51.392Z,31.3
2022-09-20T23:13:08.552Z,31.6
2022-09-20T23:15:25.276Z,31.4
2022-09-20T23:17:42.392Z,30.8
2022-09-20T23:19:59.154Z,31.2
2022-09-20T23:22:15.553Z,30.9
2022-09-20T23:24:31.179Z,31.5
2022-09-20T23:26:47.489Z,31.3
2022-09-20T23:29:03.478Z,31.9
2022-09-20T23:31:20.365Z,30.9
2022-09-20T23:33:37.604Z,31.4
2022-09-20T23:35:54.189Z,31.3
2022-09-20T23:38:11.178Z,30.6
2022-09-20T23:40:28.067Z,31.4
2022-09-20T23:42:45.158Z,31
2022-09-20T23:45:01.844Z,31.2
2022-09-20T23:47:18.809Z,31.6
2022-09-20T23:51:51.658Z,31.3
2022-09-20T23:54:08.046Z,31.1
2022-09-20T23:56:24.634Z,31.5
2022-09-20T23:58:41.663Z,31.4
